Terminal Aerodrome Forecast
Issued by NWS

Home | Current Version | Previous Version | Text Only | Print | Product List | Glossary On
Versions: 1 2 3 4 5 6 7 8 9 10 11 12 13 14 15 16 17 18 19 20 21
016
FTUS44 KCRP 211132
TAFALI
TAF
KALI 211132Z 2112/2212 16012KT 6SM BR BKN007 OVC018 WS020/18040KT
      TEMPO 2112/2114 3SM BR OVC006
     FM211500 17014G20KT P6SM SCT012 BKN025
      TEMPO 2115/2118 BKN012 BKN025
     FM212000 19012KT P6SM BKN025 BKN050
     FM220000 18008KT P6SM SCT025 SCT050
     FM220400 22005KT 4SM BR SCT004 BKN250
     FM220700 29006KT 2SM BR BKN004=

USA.gov is the U.S. government's official web portal to all federal, state and local government web resources and services.